sensor_id;sensor_type;location;lat;lon;timestamp;P1;durP1;ratioP1;P2;durP2;ratioP2
34673;SDS011;20879;55.668;37.858;2022-12-18T00:00:41;9.25;;;4.93;;
34673;SDS011;20879;55.668;37.858;2022-12-18T00:03:17;11.65;;;5.55;;
34673;SDS011;20879;55.668;37.858;2022-12-18T00:05:47;10.85;;;6.25;;
34673;SDS011;20879;55.668;37.858;2022-12-18T00:08:21;12.07;;;6.72;;
34673;SDS011;20879;55.668;37.858;2022-12-18T00:10:56;10.27;;;5.35;;
34673;SDS011;20879;55.668;37.858;2022-12-18T00:13:33;15.00;;;7.88;;
34673;SDS011;20879;55.668;37.858;2022-12-18T00:16:03;8.88;;;5.15;;
34673;SDS011;20879;55.668;37.858;2022-12-18T00:18:42;8.43;;;4.22;;
34673;SDS011;20879;55.668;37.858;2022-12-18T00:21:22;7.30;;;4.43;;
34673;SDS011;20879;55.668;37.858;2022-12-18T00:23:54;10.07;;;5.43;;
34673;SDS011;20879;55.668;37.858;2022-12-18T00:26:23;11.45;;;5.88;;
34673;SDS011;20879;55.668;37.858;2022-12-18T00:28:58;7.85;;;4.53;;
34673;SDS011;20879;55.668;37.858;2022-12-18T00:31:36;17.50;;;10.95;;
34673;SDS011;20879;55.668;37.858;2022-12-18T00:34:08;10.98;;;5.57;;
34673;SDS011;20879;55.668;37.858;2022-12-18T00:36:39;10.10;;;4.72;;
34673;SDS011;20879;55.668;37.858;2022-12-18T00:39:11;14.57;;;8.27;;
34673;SDS011;20879;55.668;37.858;2022-12-18T00:41:43;10.07;;;5.15;;
34673;SDS011;20879;55.668;37.858;2022-12-18T00:44:26;7.88;;;4.75;;
34673;SDS011;20879;55.668;37.858;2022-12-18T00:46:55;9.48;;;5.38;;
34673;SDS011;20879;55.668;37.858;2022-12-18T00:49:26;7.80;;;4.70;;
34673;SDS011;20879;55.668;37.858;2022-12-18T00:51:55;13.15;;;6.60;;
34673;SDS011;20879;55.668;37.858;2022-12-18T00:54:25;7.15;;;4.22;;
34673;SDS011;20879;55.668;37.858;2022-12-18T00:56:59;8.18;;;4.80;;
34673;SDS011;20879;55.668;37.858;2022-12-18T00:59:28;7.45;;;3.60;;
34673;SDS011;20879;55.668;37.858;2022-12-18T01:01:58;8.23;;;4.10;;
34673;SDS011;20879;55.668;37.858;2022-12-18T01:04:29;10.43;;;6.72;;
34673;SDS011;20879;55.668;37.858;2022-12-18T01:06:59;7.00;;;3.85;;
34673;SDS011;20879;55.668;37.858;2022-12-18T01:09:28;8.68;;;4.00;;
34673;SDS011;20879;55.668;37.858;2022-12-18T01:12:05;6.80;;;3.40;;
34673;SDS011;20879;55.668;37.858;2022-12-18T01:14:35;10.48;;;5.38;;
34673;SDS011;20879;55.668;37.858;2022-12-18T01:17:04;9.20;;;5.45;;
34673;SDS011;20879;55.668;37.858;2022-12-18T01:19:41;11.27;;;6.63;;
34673;SDS011;20879;55.668;37.858;2022-12-18T01:22:10;6.03;;;3.78;;
34673;SDS011;20879;55.668;37.858;2022-12-18T01:24:39;8.25;;;4.97;;
34673;SDS011;20879;55.668;37.858;2022-12-18T01:27:08;5.93;;;3.53;;
34673;SDS011;20879;55.668;37.858;2022-12-18T01:29:39;9.25;;;4.68;;
34673;SDS011;20879;55.668;37.858;2022-12-18T01:32:20;8.27;;;5.27;;
34673;SDS011;20879;55.668;37.858;2022-12-18T01:34:57;10.13;;;6.15;;
34673;SDS011;20879;55.668;37.858;2022-12-18T01:37:31;11.27;;;6.82;;
34673;SDS011;20879;55.668;37.858;2022-12-18T01:40:01;13.88;;;8.98;;
34673;SDS011;20879;55.668;37.858;2022-12-18T01:42:30;10.25;;;5.82;;
34673;SDS011;20879;55.668;37.858;2022-12-18T01:47:53;12.07;;;5.93;;
34673;SDS011;20879;55.668;37.858;2022-12-18T01:50:27;15.23;;;8.35;;
34673;SDS011;20879;55.668;37.858;2022-12-18T01:53:06;11.23;;;7.50;;
34673;SDS011;20879;55.668;37.858;2022-12-18T01:55:46;12.70;;;7.93;;
34673;SDS011;20879;55.668;37.858;2022-12-18T01:58:18;9.90;;;5.95;;
34673;SDS011;20879;55.668;37.858;2022-12-18T02:00:50;8.40;;;5.38;;
34673;SDS011;20879;55.668;37.858;2022-12-18T02:03:19;10.10;;;5.28;;
34673;SDS011;20879;55.668;37.858;2022-12-18T02:05:57;10.57;;;5.72;;
34673;SDS011;20879;55.668;37.858;2022-12-18T02:08:32;11.80;;;6.45;;
34673;SDS011;20879;55.668;37.858;2022-12-18T02:11:07;9.82;;;4.57;;
34673;SDS011;20879;55.668;37.858;2022-12-18T02:16:29;12.45;;;7.70;;
34673;SDS011;20879;55.668;37.858;2022-12-18T02:19:11;6.60;;;3.55;;
34673;SDS011;20879;55.668;37.858;2022-12-18T02:22:02;7.05;;;4.10;;
34673;SDS011;20879;55.668;37.858;2022-12-18T02:24:49;12.63;;;6.20;;
34673;SDS011;20879;55.668;37.858;2022-12-18T02:27:31;13.88;;;7.75;;
34673;SDS011;20879;55.668;37.858;2022-12-18T02:30:04;9.75;;;5.72;;
34673;SDS011;20879;55.668;37.858;2022-12-18T02:32:38;11.00;;;6.78;;
34673;SDS011;20879;55.668;37.858;2022-12-18T02:35:14;14.43;;;10.63;;
34673;SDS011;20879;55.668;37.858;2022-12-18T02:37:57;9.98;;;5.43;;
34673;SDS011;20879;55.668;37.858;2022-12-18T02:40:34;8.98;;;5.47;;
34673;SDS011;20879;55.668;37.858;2022-12-18T02:43:10;7.35;;;4.22;;
34673;SDS011;20879;55.668;37.858;2022-12-18T02:45:52;8.05;;;4.13;;
34673;SDS011;20879;55.668;37.858;2022-12-18T02:48:26;8.00;;;4.93;;
34673;SDS011;20879;55.668;37.858;2022-12-18T02:50:59;6.57;;;3.28;;
34673;SDS011;20879;55.668;37.858;2022-12-18T02:53:39;13.52;;;7.25;;
34673;SDS011;20879;55.668;37.858;2022-12-18T02:56:19;7.65;;;4.00;;
34673;SDS011;20879;55.668;37.858;2022-12-18T02:58:55;6.75;;;3.78;;
34673;SDS011;20879;55.668;37.858;2022-12-18T03:01:38;12.15;;;6.68;;
34673;SDS011;20879;55.668;37.858;2022-12-18T03:04:12;11.93;;;7.40;;
34673;SDS011;20879;55.668;37.858;2022-12-18T03:09:25;10.93;;;5.28;;
34673;SDS011;20879;55.668;37.858;2022-12-18T03:11:59;5.63;;;3.13;;
34673;SDS011;20879;55.668;37.858;2022-12-18T03:14:56;12.95;;;8.80;;
34673;SDS011;20879;55.668;37.858;2022-12-18T03:17:30;6.78;;;3.42;;
34673;SDS011;20879;55.668;37.858;2022-12-18T03:20:03;8.63;;;4.32;;
34673;SDS011;20879;55.668;37.858;2022-12-18T03:22:36;6.75;;;3.58;;
34673;SDS011;20879;55.668;37.858;2022-12-18T03:25:07;5.72;;;3.17;;
34673;SDS011;20879;55.668;37.858;2022-12-18T03:27:42;9.77;;;5.75;;
34673;SDS011;20879;55.668;37.858;2022-12-18T03:30:22;8.40;;;4.30;;
34673;SDS011;20879;55.668;37.858;2022-12-18T03:32:53;5.95;;;3.28;;
34673;SDS011;20879;55.668;37.858;2022-12-18T03:35:30;5.97;;;3.65;;
34673;SDS011;20879;55.668;37.858;2022-12-18T03:38:03;12.55;;;6.72;;
34673;SDS011;20879;55.668;37.858;2022-12-18T03:40:39;8.48;;;4.57;;
34673;SDS011;20879;55.668;37.858;2022-12-18T03:43:20;7.32;;;4.35;;
34673;SDS011;20879;55.668;37.858;2022-12-18T03:46:02;13.15;;;8.18;;
34673;SDS011;20879;55.668;37.858;2022-12-18T03:48:40;8.60;;;4.28;;
34673;SDS011;20879;55.668;37.858;2022-12-18T03:51:18;7.45;;;4.88;;
34673;SDS011;20879;55.668;37.858;2022-12-18T03:53:53;7.07;;;4.32;;
34673;SDS011;20879;55.668;37.858;2022-12-18T03:56:35;5.35;;;3.22;;
34673;SDS011;20879;55.668;37.858;2022-12-18T03:59:10;8.27;;;4.57;;
34673;SDS011;20879;55.668;37.858;2022-12-18T04:01:45;7.57;;;3.67;;
34673;SDS011;20879;55.668;37.858;2022-12-18T04:04:19;7.47;;;4.65;;
34673;SDS011;20879;55.668;37.858;2022-12-18T04:06:51;6.32;;;4.07;;
34673;SDS011;20879;55.668;37.858;2022-12-18T04:09:22;10.75;;;5.75;;
34673;SDS011;20879;55.668;37.858;2022-12-18T04:11:52;7.10;;;3.90;;
34673;SDS011;20879;55.668;37.858;2022-12-18T04:14:28;6.60;;;4.18;;
34673;SDS011;20879;55.668;37.858;2022-12-18T04:17:09;5.70;;;3.05;;
34673;SDS011;20879;55.668;37.858;2022-12-18T04:19:39;7.50;;;4.03;;
34673;SDS011;20879;55.668;37.858;2022-12-18T04:22:15;9.30;;;4.63;;
34673;SDS011;20879;55.668;37.858;2022-12-18T04:24:56;10.18;;;6.50;;
34673;SDS011;20879;55.668;37.858;2022-12-18T04:27:32;8.02;;;3.85;;
34673;SDS011;20879;55.668;37.858;2022-12-18T04:30:08;3.83;;;2.40;;
34673;SDS011;20879;55.668;37.858;2022-12-18T04:32:39;11.63;;;5.00;;
34673;SDS011;20879;55.668;37.858;2022-12-18T04:35:15;6.90;;;3.38;;
34673;SDS011;20879;55.668;37.858;2022-12-18T04:37:44;5.85;;;2.80;;
34673;SDS011;20879;55.668;37.858;2022-12-18T04:40:14;4.10;;;2.50;;
34673;SDS011;20879;55.668;37.858;2022-12-18T04:42:46;7.90;;;4.70;;
34673;SDS011;20879;55.668;37.858;2022-12-18T04:45:15;5.75;;;3.30;;
34673;SDS011;20879;55.668;37.858;2022-12-18T04:47:47;6.38;;;3.67;;
34673;SDS011;20879;55.668;37.858;2022-12-18T04:50:16;10.02;;;5.18;;
34673;SDS011;20879;55.668;37.858;2022-12-18T04:52:45;4.28;;;2.72;;
34673;SDS011;20879;55.668;37.858;2022-12-18T04:55:15;6.57;;;3.22;;
34673;SDS011;20879;55.668;37.858;2022-12-18T04:57:44;5.47;;;2.85;;
34673;SDS011;20879;55.668;37.858;2022-12-18T05:00:18;4.95;;;2.70;;
34673;SDS011;20879;55.668;37.858;2022-12-18T05:02:56;2.80;;;2.28;;
34673;SDS011;20879;55.668;37.858;2022-12-18T05:05:26;6.20;;;3.25;;
34673;SDS011;20879;55.668;37.858;2022-12-18T05:07:55;6.20;;;3.70;;
34673;SDS011;20879;55.668;37.858;2022-12-18T05:10:24;4.05;;;2.55;;
34673;SDS011;20879;55.668;37.858;2022-12-18T05:12:54;7.15;;;4.05;;
34673;SDS011;20879;55.668;37.858;2022-12-18T05:15:30;5.53;;;3.08;;
34673;SDS011;20879;55.668;37.858;2022-12-18T05:20:42;7.43;;;3.88;;
34673;SDS011;20879;55.668;37.858;2022-12-18T05:23:12;9.40;;;5.93;;
34673;SDS011;20879;55.668;37.858;2022-12-18T05:25:42;7.47;;;4.32;;
34673;SDS011;20879;55.668;37.858;2022-12-18T05:28:16;8.48;;;4.55;;
34673;SDS011;20879;55.668;37.858;2022-12-18T05:30:47;7.25;;;5.00;;
34673;SDS011;20879;55.668;37.858;2022-12-18T05:33:27;10.35;;;6.90;;
34673;SDS011;20879;55.668;37.858;2022-12-18T05:35:58;10.52;;;4.57;;
34673;SDS011;20879;55.668;37.858;2022-12-18T05:38:31;8.25;;;4.78;;
34673;SDS011;20879;55.668;37.858;2022-12-18T05:41:02;8.68;;;4.22;;
34673;SDS011;20879;55.668;37.858;2022-12-18T05:43:34;10.95;;;7.65;;
34673;SDS011;20879;55.668;37.858;2022-12-18T05:46:04;12.48;;;8.95;;
34673;SDS011;20879;55.668;37.858;2022-12-18T05:48:37;7.35;;;3.40;;
34673;SDS011;20879;55.668;37.858;2022-12-18T05:51:11;7.40;;;3.80;;
34673;SDS011;20879;55.668;37.858;2022-12-18T05:53:47;10.75;;;7.65;;
34673;SDS011;20879;55.668;37.858;2022-12-18T05:56:19;8.40;;;3.60;;
34673;SDS011;20879;55.668;37.858;2022-12-18T05:58:51;7.65;;;4.20;;
34673;SDS011;20879;55.668;37.858;2022-12-18T06:01:21;6.32;;;3.30;;
34673;SDS011;20879;55.668;37.858;2022-12-18T06:03:55;6.60;;;3.75;;
34673;SDS011;20879;55.668;37.858;2022-12-18T06:06:25;6.85;;;3.80;;
34673;SDS011;20879;55.668;37.858;2022-12-18T06:09:00;7.07;;;3.58;;
34673;SDS011;20879;55.668;37.858;2022-12-18T06:11:34;5.50;;;3.72;;
34673;SDS011;20879;55.668;37.858;2022-12-18T06:14:05;7.27;;;4.40;;
34673;SDS011;20879;55.668;37.858;2022-12-18T06:16:40;8.05;;;3.70;;
34673;SDS011;20879;55.668;37.858;2022-12-18T06:19:16;5.28;;;3.13;;
34673;SDS011;20879;55.668;37.858;2022-12-18T06:21:45;6.68;;;3.75;;
34673;SDS011;20879;55.668;37.858;2022-12-18T06:24:20;5.47;;;2.88;;
34673;SDS011;20879;55.668;37.858;2022-12-18T06:26:49;5.82;;;3.65;;
34673;SDS011;20879;55.668;37.858;2022-12-18T06:29:18;6.18;;;3.60;;
34673;SDS011;20879;55.668;37.858;2022-12-18T06:31:48;5.05;;;2.60;;
34673;SDS011;20879;55.668;37.858;2022-12-18T06:34:19;6.85;;;3.50;;
34673;SDS011;20879;55.668;37.858;2022-12-18T06:36:48;3.50;;;2.10;;
34673;SDS011;20879;55.668;37.858;2022-12-18T06:39:17;4.50;;;2.88;;
34673;SDS011;20879;55.668;37.858;2022-12-18T06:41:47;4.80;;;2.20;;
34673;SDS011;20879;55.668;37.858;2022-12-18T06:44:17;3.85;;;2.63;;
34673;SDS011;20879;55.668;37.858;2022-12-18T06:46:52;3.85;;;2.58;;
34673;SDS011;20879;55.668;37.858;2022-12-18T06:49:23;4.00;;;2.45;;
34673;SDS011;20879;55.668;37.858;2022-12-18T06:51:56;5.35;;;2.67;;
34673;SDS011;20879;55.668;37.858;2022-12-18T06:54:36;4.68;;;2.65;;
34673;SDS011;20879;55.668;37.858;2022-12-18T06:57:05;4.90;;;2.70;;
34673;SDS011;20879;55.668;37.858;2022-12-18T06:59:34;4.10;;;2.05;;
34673;SDS011;20879;55.668;37.858;2022-12-18T07:02:10;2.55;;;1.80;;
34673;SDS011;20879;55.668;37.858;2022-12-18T07:04:43;4.10;;;2.40;;
34673;SDS011;20879;55.668;37.858;2022-12-18T07:09:53;5.68;;;3.30;;
34673;SDS011;20879;55.668;37.858;2022-12-18T07:12:22;4.10;;;2.47;;
34673;SDS011;20879;55.668;37.858;2022-12-18T07:14:51;6.57;;;3.75;;
34673;SDS011;20879;55.668;37.858;2022-12-18T07:17:26;6.35;;;2.90;;
34673;SDS011;20879;55.668;37.858;2022-12-18T07:19:57;5.15;;;2.92;;
34673;SDS011;20879;55.668;37.858;2022-12-18T07:22:29;5.45;;;2.38;;
34673;SDS011;20879;55.668;37.858;2022-12-18T07:24:58;7.38;;;3.83;;
34673;SDS011;20879;55.668;37.858;2022-12-18T07:27:29;4.22;;;2.72;;
34673;SDS011;20879;55.668;37.858;2022-12-18T07:29:58;3.72;;;2.17;;
34673;SDS011;20879;55.668;37.858;2022-12-18T07:32:30;6.35;;;2.53;;
34673;SDS011;20879;55.668;37.858;2022-12-18T07:35:01;4.38;;;2.90;;
34673;SDS011;20879;55.668;37.858;2022-12-18T07:37:31;7.38;;;2.85;;
34673;SDS011;20879;55.668;37.858;2022-12-18T07:40:00;4.70;;;2.63;;
34673;SDS011;20879;55.668;37.858;2022-12-18T07:42:29;6.75;;;3.55;;
34673;SDS011;20879;55.668;37.858;2022-12-18T07:44:59;6.13;;;2.75;;
34673;SDS011;20879;55.668;37.858;2022-12-18T07:47:34;5.57;;;2.47;;
34673;SDS011;20879;55.668;37.858;2022-12-18T07:50:07;5.78;;;3.00;;
34673;SDS011;20879;55.668;37.858;2022-12-18T07:52:39;5.25;;;2.90;;
34673;SDS011;20879;55.668;37.858;2022-12-18T07:55:09;4.45;;;2.42;;
34673;SDS011;20879;55.668;37.858;2022-12-18T07:57:38;6.53;;;3.28;;
34673;SDS011;20879;55.668;37.858;2022-12-18T08:02:52;3.55;;;2.42;;
34673;SDS011;20879;55.668;37.858;2022-12-18T08:05:25;6.57;;;3.40;;
34673;SDS011;20879;55.668;37.858;2022-12-18T08:07:55;6.60;;;4.30;;
34673;SDS011;20879;55.668;37.858;2022-12-18T08:10:24;5.18;;;2.80;;
34673;SDS011;20879;55.668;37.858;2022-12-18T08:12:53;3.95;;;2.17;;
34673;SDS011;20879;55.668;37.858;2022-12-18T08:15:30;7.50;;;4.40;;
34673;SDS011;20879;55.668;37.858;2022-12-18T08:17:59;3.78;;;2.55;;
34673;SDS011;20879;55.668;37.858;2022-12-18T08:20:42;5.93;;;2.95;;
34673;SDS011;20879;55.668;37.858;2022-12-18T08:23:17;7.38;;;3.40;;
34673;SDS011;20879;55.668;37.858;2022-12-18T08:25:47;5.25;;;2.90;;
34673;SDS011;20879;55.668;37.858;2022-12-18T08:28:17;6.40;;;2.92;;
34673;SDS011;20879;55.668;37.858;2022-12-18T08:30:46;7.72;;;3.83;;
34673;SDS011;20879;55.668;37.858;2022-12-18T08:33:25;5.00;;;2.80;;
34673;SDS011;20879;55.668;37.858;2022-12-18T08:35:57;5.68;;;2.92;;
34673;SDS011;20879;55.668;37.858;2022-12-18T08:38:38;5.38;;;3.20;;
34673;SDS011;20879;55.668;37.858;2022-12-18T08:41:08;4.72;;;3.13;;
34673;SDS011;20879;55.668;37.858;2022-12-18T08:46:22;7.43;;;3.80;;
34673;SDS011;20879;55.668;37.858;2022-12-18T08:48:53;5.25;;;2.83;;
34673;SDS011;20879;55.668;37.858;2022-12-18T08:51:25;5.47;;;2.47;;
34673;SDS011;20879;55.668;37.858;2022-12-18T08:53:54;5.88;;;3.40;;
34673;SDS011;20879;55.668;37.858;2022-12-18T08:56:24;5.32;;;2.60;;
34673;SDS011;20879;55.668;37.858;2022-12-18T08:58:53;5.65;;;2.72;;
34673;SDS011;20879;55.668;37.858;2022-12-18T09:01:23;5.20;;;3.22;;
34673;SDS011;20879;55.668;37.858;2022-12-18T09:03:53;5.68;;;3.30;;
34673;SDS011;20879;55.668;37.858;2022-12-18T09:06:22;4.75;;;3.00;;
34673;SDS011;20879;55.668;37.858;2022-12-18T09:09:02;8.45;;;3.92;;
34673;SDS011;20879;55.668;37.858;2022-12-18T09:11:32;6.72;;;3.20;;
34673;SDS011;20879;55.668;37.858;2022-12-18T09:14:02;4.65;;;3.00;;
34673;SDS011;20879;55.668;37.858;2022-12-18T09:16:32;5.68;;;2.90;;
34673;SDS011;20879;55.668;37.858;2022-12-18T09:19:04;5.78;;;3.33;;
34673;SDS011;20879;55.668;37.858;2022-12-18T09:21:34;5.15;;;3.22;;
34673;SDS011;20879;55.668;37.858;2022-12-18T09:24:13;3.58;;;2.20;;
34673;SDS011;20879;55.668;37.858;2022-12-18T09:26:44;5.40;;;2.92;;
34673;SDS011;20879;55.668;37.858;2022-12-18T09:29:13;4.80;;;2.35;;
34673;SDS011;20879;55.668;37.858;2022-12-18T09:31:44;6.60;;;2.65;;
34673;SDS011;20879;55.668;37.858;2022-12-18T09:34:16;4.72;;;2.90;;
34673;SDS011;20879;55.668;37.858;2022-12-18T09:36:47;6.75;;;3.72;;
34673;SDS011;20879;55.668;37.858;2022-12-18T09:39:19;6.38;;;3.10;;
34673;SDS011;20879;55.668;37.858;2022-12-18T09:41:50;8.13;;;3.65;;
34673;SDS011;20879;55.668;37.858;2022-12-18T09:44:25;5.13;;;3.40;;
34673;SDS011;20879;55.668;37.858;2022-12-18T09:47:07;5.57;;;2.33;;
34673;SDS011;20879;55.668;37.858;2022-12-18T09:49:44;4.30;;;2.70;;
34673;SDS011;20879;55.668;37.858;2022-12-18T09:52:16;7.73;;;3.53;;
34673;SDS011;20879;55.668;37.858;2022-12-18T09:54:53;4.95;;;3.45;;
34673;SDS011;20879;55.668;37.858;2022-12-18T09:57:25;5.20;;;2.70;;
34673;SDS011;20879;55.668;37.858;2022-12-18T10:00:03;7.55;;;2.92;;
34673;SDS011;20879;55.668;37.858;2022-12-18T10:02:47;4.25;;;2.65;;
34673;SDS011;20879;55.668;37.858;2022-12-18T10:07:53;3.50;;;2.22;;
34673;SDS011;20879;55.668;37.858;2022-12-18T10:10:39;5.50;;;3.00;;
34673;SDS011;20879;55.668;37.858;2022-12-18T10:13:15;4.07;;;2.28;;
34673;SDS011;20879;55.668;37.858;2022-12-18T10:15:54;5.55;;;3.05;;
34673;SDS011;20879;55.668;37.858;2022-12-18T10:18:42;4.95;;;2.58;;
34673;SDS011;20879;55.668;37.858;2022-12-18T10:21:39;5.15;;;3.15;;
34673;SDS011;20879;55.668;37.858;2022-12-18T10:24:20;5.13;;;2.88;;
34673;SDS011;20879;55.668;37.858;2022-12-18T10:27:04;5.18;;;2.60;;
34673;SDS011;20879;55.668;37.858;2022-12-18T10:29:47;6.17;;;2.97;;
34673;SDS011;20879;55.668;37.858;2022-12-18T10:32:18;4.72;;;2.00;;
34673;SDS011;20879;55.668;37.858;2022-12-18T10:34:52;4.05;;;2.00;;
34673;SDS011;20879;55.668;37.858;2022-12-18T10:37:27;4.57;;;2.53;;
34673;SDS011;20879;55.668;37.858;2022-12-18T10:40:11;4.50;;;2.85;;
34673;SDS011;20879;55.668;37.858;2022-12-18T10:45:34;3.97;;;2.20;;
34673;SDS011;20879;55.668;37.858;2022-12-18T10:48:03;3.97;;;2.22;;
34673;SDS011;20879;55.668;37.858;2022-12-18T10:50:34;5.07;;;2.80;;
34673;SDS011;20879;55.668;37.858;2022-12-18T10:53:25;6.18;;;4.15;;
34673;SDS011;20879;55.668;37.858;2022-12-18T10:55:57;4.45;;;2.47;;
34673;SDS011;20879;55.668;37.858;2022-12-18T10:58:32;5.07;;;2.58;;
34673;SDS011;20879;55.668;37.858;2022-12-18T11:01:08;3.17;;;1.80;;
34673;SDS011;20879;55.668;37.858;2022-12-18T11:03:45;3.22;;;2.17;;
34673;SDS011;20879;55.668;37.858;2022-12-18T11:06:28;3.13;;;2.13;;
34673;SDS011;20879;55.668;37.858;2022-12-18T11:09:04;2.97;;;1.58;;
34673;SDS011;20879;55.668;37.858;2022-12-18T11:11:48;4.03;;;1.88;;
34673;SDS011;20879;55.668;37.858;2022-12-18T11:14:26;4.00;;;1.73;;
34673;SDS011;20879;55.668;37.858;2022-12-18T11:16:57;3.90;;;2.53;;
34673;SDS011;20879;55.668;37.858;2022-12-18T11:19:53;2.78;;;1.98;;
34673;SDS011;20879;55.668;37.858;2022-12-18T11:22:24;2.60;;;2.00;;
34673;SDS011;20879;55.668;37.858;2022-12-18T11:24:56;3.42;;;1.90;;
34673;SDS011;20879;55.668;37.858;2022-12-18T11:27:48;3.70;;;2.05;;
34673;SDS011;20879;55.668;37.858;2022-12-18T11:30:26;2.17;;;1.77;;
34673;SDS011;20879;55.668;37.858;2022-12-18T11:32:59;3.53;;;1.90;;
34673;SDS011;20879;55.668;37.858;2022-12-18T11:35:38;2.97;;;1.90;;
34673;SDS011;20879;55.668;37.858;2022-12-18T11:38:20;2.95;;;1.65;;
34673;SDS011;20879;55.668;37.858;2022-12-18T11:40:56;2.80;;;1.30;;
34673;SDS011;20879;55.668;37.858;2022-12-18T11:43:35;3.75;;;1.65;;
34673;SDS011;20879;55.668;37.858;2022-12-18T11:46:10;5.95;;;2.20;;
34673;SDS011;20879;55.668;37.858;2022-12-18T11:48:47;2.10;;;1.40;;
34673;SDS011;20879;55.668;37.858;2022-12-18T11:51:32;2.97;;;2.10;;
34673;SDS011;20879;55.668;37.858;2022-12-18T11:54:08;6.88;;;1.75;;
34673;SDS011;20879;55.668;37.858;2022-12-18T11:56:43;5.32;;;3.05;;
34673;SDS011;20879;55.668;37.858;2022-12-18T11:59:17;5.10;;;2.40;;
34673;SDS011;20879;55.668;37.858;2022-12-18T12:02:03;7.18;;;4.03;;
34673;SDS011;20879;55.668;37.858;2022-12-18T12:05:01;2.45;;;1.30;;
34673;SDS011;20879;55.668;37.858;2022-12-18T12:07:42;2.17;;;1.60;;
34673;SDS011;20879;55.668;37.858;2022-12-18T12:10:24;2.72;;;1.65;;
34673;SDS011;20879;55.668;37.858;2022-12-18T12:13:15;3.47;;;2.20;;
34673;SDS011;20879;55.668;37.858;2022-12-18T12:16:07;3.28;;;2.03;;
34673;SDS011;20879;55.668;37.858;2022-12-18T12:18:56;3.15;;;1.45;;
34673;SDS011;20879;55.668;37.858;2022-12-18T12:21:41;2.60;;;1.85;;
34673;SDS011;20879;55.668;37.858;2022-12-18T12:24:25;2.05;;;1.50;;
34673;SDS011;20879;55.668;37.858;2022-12-18T12:27:05;3.08;;;1.30;;
34673;SDS011;20879;55.668;37.858;2022-12-18T12:29:46;2.33;;;1.85;;
34673;SDS011;20879;55.668;37.858;2022-12-18T12:32:27;3.00;;;1.92;;
34673;SDS011;20879;55.668;37.858;2022-12-18T12:35:19;1.95;;;1.13;;
34673;SDS011;20879;55.668;37.858;2022-12-18T12:38:07;2.30;;;1.52;;
34673;SDS011;20879;55.668;37.858;2022-12-18T12:40:41;3.72;;;2.50;;
34673;SDS011;20879;55.668;37.858;2022-12-18T12:43:27;2.05;;;1.30;;
34673;SDS011;20879;55.668;37.858;2022-12-18T12:46:02;2.88;;;1.75;;
34673;SDS011;20879;55.668;37.858;2022-12-18T12:54:44;2.70;;;1.85;;
34673;SDS011;20879;55.668;37.858;2022-12-18T12:57:19;3.55;;;1.92;;
34673;SDS011;20879;55.668;37.858;2022-12-18T12:59:59;2.50;;;1.40;;
34673;SDS011;20879;55.668;37.858;2022-12-18T13:02:34;1.30;;;1.00;;
34673;SDS011;20879;55.668;37.858;2022-12-18T13:05:10;1.80;;;1.23;;
34673;SDS011;20879;55.668;37.858;2022-12-18T13:07:54;1.92;;;0.93;;
34673;SDS011;20879;55.668;37.858;2022-12-18T13:10:36;2.55;;;1.40;;
34673;SDS011;20879;55.668;37.858;2022-12-18T13:13:08;2.22;;;1.40;;
34673;SDS011;20879;55.668;37.858;2022-12-18T13:15:39;2.60;;;1.40;;
34673;SDS011;20879;55.668;37.858;2022-12-18T13:18:17;1.70;;;1.20;;
34673;SDS011;20879;55.668;37.858;2022-12-18T13:20:49;1.92;;;1.23;;
34673;SDS011;20879;55.668;37.858;2022-12-18T13:23:33;1.92;;;1.33;;
34673;SDS011;20879;55.668;37.858;2022-12-18T13:29:00;2.00;;;1.25;;
34673;SDS011;20879;55.668;37.858;2022-12-18T13:34:28;2.30;;;1.20;;
34673;SDS011;20879;55.668;37.858;2022-12-18T13:39:58;1.80;;;0.93;;
34673;SDS011;20879;55.668;37.858;2022-12-18T13:42:41;3.20;;;2.03;;
34673;SDS011;20879;55.668;37.858;2022-12-18T13:45:37;1.75;;;1.38;;
34673;SDS011;20879;55.668;37.858;2022-12-18T13:48:17;2.55;;;1.40;;
34673;SDS011;20879;55.668;37.858;2022-12-18T13:50:50;2.05;;;1.23;;
34673;SDS011;20879;55.668;37.858;2022-12-18T13:53:26;2.50;;;1.63;;
34673;SDS011;20879;55.668;37.858;2022-12-18T13:56:04;2.72;;;1.30;;
34673;SDS011;20879;55.668;37.858;2022-12-18T13:58:36;1.30;;;0.93;;
34673;SDS011;20879;55.668;37.858;2022-12-18T14:01:21;1.77;;;1.33;;
34673;SDS011;20879;55.668;37.858;2022-12-18T14:06:37;2.47;;;1.60;;
34673;SDS011;20879;55.668;37.858;2022-12-18T14:09:14;3.13;;;1.50;;
34673;SDS011;20879;55.668;37.858;2022-12-18T14:11:47;3.40;;;1.75;;
34673;SDS011;20879;55.668;37.858;2022-12-18T14:14:24;2.53;;;1.40;;
34673;SDS011;20879;55.668;37.858;2022-12-18T14:16:59;3.55;;;1.65;;
34673;SDS011;20879;55.668;37.858;2022-12-18T14:19:33;3.92;;;1.52;;
34673;SDS011;20879;55.668;37.858;2022-12-18T14:22:03;2.70;;;1.85;;
34673;SDS011;20879;55.668;37.858;2022-12-18T14:24:32;3.13;;;1.80;;
34673;SDS011;20879;55.668;37.858;2022-12-18T14:27:11;4.85;;;1.95;;
34673;SDS011;20879;55.668;37.858;2022-12-18T14:29:55;6.43;;;2.90;;
34673;SDS011;20879;55.668;37.858;2022-12-18T14:32:29;8.13;;;2.13;;
34673;SDS011;20879;55.668;37.858;2022-12-18T14:34:59;7.13;;;3.53;;
34673;SDS011;20879;55.668;37.858;2022-12-18T14:37:42;7.30;;;2.60;;
34673;SDS011;20879;55.668;37.858;2022-12-18T14:40:11;6.97;;;2.60;;
34673;SDS011;20879;55.668;37.858;2022-12-18T14:42:42;7.20;;;3.47;;
34673;SDS011;20879;55.668;37.858;2022-12-18T14:50:54;9.75;;;3.40;;
34673;SDS011;20879;55.668;37.858;2022-12-18T14:53:32;9.77;;;4.07;;
34673;SDS011;20879;55.668;37.858;2022-12-18T14:56:10;7.22;;;3.50;;
34673;SDS011;20879;55.668;37.858;2022-12-18T14:58:49;8.90;;;3.25;;
34673;SDS011;20879;55.668;37.858;2022-12-18T15:01:24;4.35;;;2.38;;
34673;SDS011;20879;55.668;37.858;2022-12-18T15:03:56;5.28;;;2.28;;
34673;SDS011;20879;55.668;37.858;2022-12-18T15:06:28;8.45;;;3.35;;
34673;SDS011;20879;55.668;37.858;2022-12-18T15:09:05;7.40;;;2.63;;
34673;SDS011;20879;55.668;37.858;2022-12-18T15:11:54;6.53;;;2.78;;
34673;SDS011;20879;55.668;37.858;2022-12-18T15:14:30;5.88;;;2.83;;
34673;SDS011;20879;55.668;37.858;2022-12-18T15:17:06;7.75;;;2.60;;
34673;SDS011;20879;55.668;37.858;2022-12-18T15:19:51;5.53;;;2.63;;
34673;SDS011;20879;55.668;37.858;2022-12-18T15:22:29;4.43;;;2.38;;
34673;SDS011;20879;55.668;37.858;2022-12-18T15:25:03;3.78;;;2.10;;
34673;SDS011;20879;55.668;37.858;2022-12-18T15:27:52;3.33;;;1.90;;
34673;SDS011;20879;55.668;37.858;2022-12-18T15:30:24;5.13;;;2.07;;
34673;SDS011;20879;55.668;37.858;2022-12-18T15:35:55;4.07;;;2.15;;
34673;SDS011;20879;55.668;37.858;2022-12-18T15:38:26;4.90;;;2.65;;
34673;SDS011;20879;55.668;37.858;2022-12-18T15:40:55;3.83;;;2.13;;
34673;SDS011;20879;55.668;37.858;2022-12-18T15:43:30;1.98;;;1.45;;
34673;SDS011;20879;55.668;37.858;2022-12-18T15:46:01;3.50;;;2.25;;
34673;SDS011;20879;55.668;37.858;2022-12-18T15:48:34;2.50;;;1.58;;
34673;SDS011;20879;55.668;37.858;2022-12-18T15:51:09;3.92;;;1.88;;
34673;SDS011;20879;55.668;37.858;2022-12-18T15:53:43;4.75;;;2.40;;
34673;SDS011;20879;55.668;37.858;2022-12-18T15:56:14;4.00;;;2.40;;
34673;SDS011;20879;55.668;37.858;2022-12-18T15:58:57;5.22;;;2.65;;
34673;SDS011;20879;55.668;37.858;2022-12-18T16:01:27;5.82;;;2.78;;
34673;SDS011;20879;55.668;37.858;2022-12-18T16:04:02;3.58;;;2.00;;
34673;SDS011;20879;55.668;37.858;2022-12-18T16:06:37;4.47;;;1.95;;
34673;SDS011;20879;55.668;37.858;2022-12-18T16:09:27;4.07;;;2.00;;